Terminal Aerodrome Forecast
Issued by NWS

Home | Current Version | Previous Version | Text Only | Print | Product List | Glossary Off
Versions: 1 2 3 4 5 6 7 8 9 10 11 12 13 14 15

000
FTUS43 KICT 081722
TAFCNU
TAF
KCNU 081722Z 0818/0918 33026G34KT P6SM BKN040
     FM082000 32026G35KT P6SM SCT045
     FM090000 33017G24KT P6SM FEW040 SCT110
     FM090900 32013KT P6SM SCT250=

USA.gov is the U.S. government's official web portal to all federal, state and local government web resources and services.